Time;durP1;ratioP1;P1;durP2;ratioP2;P2;SDS_P1;SDS_P2;PMS_P1;PMS_P2;Temp;Humidity;BMP_temperature;BMP_pressure;BME280_temperature;BME280_humidity;BME280_pressure;Samples;Min_cycle;Max_cycle;Signal;HPM_P1;HPM_P2
2021/04/09 00:00:52;;;;;;;;;;;153.70;1740.80;;;;;;5098612;28;20431;-83
2021/04/09 00:03:18;;;;;;;56.40;24.85;;;153.70;1766.40;;;;;;5099128;28;19918;-81
2021/04/09 00:05:45;;;;;;;39.97;20.58;;;153.70;1766.40;;;;;;5095578;28;20044;-79
2021/04/09 00:08:11;;;;;;;24.52;11.88;;;153.70;1740.80;;;;;;5097178;28;20038;-77
2021/04/09 00:10:37;;;;;;;;;;;153.60;1740.80;;;;;;5096878;28;20107;-77
2021/04/09 00:13:03;;;;;;;21.40;12.00;;;153.70;1740.80;;;;;;5098204;28;20019;-80
2021/04/09 00:15:28;;;;;;;;;;;153.60;1740.80;;;;;;5088508;28;20059;-79
2021/04/09 00:17:54;;;;;;;22.83;13.82;;;153.60;1740.80;;;;;;5084429;28;19952;-86
2021/04/09 00:20:21;;;;;;;;;;;153.60;1740.80;;;;;;5077697;28;20569;-81
2021/04/09 00:22:47;;;;;;;18.67;9.90;;;153.60;1740.80;;;;;;5077787;28;19904;-82
2021/04/09 00:25:15;;;;;;;57.97;24.27;;;153.60;1766.40;;;;;;5079902;28;20017;-82
2021/04/09 00:27:40;;;;;;;101.10;42.83;;;153.60;1766.40;;;;;;5086611;28;20024;-82
2021/04/09 00:30:09;;;;;;;87.35;40.47;;;153.60;1766.40;;;;;;5083024;28;20016;-79
2021/04/09 00:32:34;;;;;;;101.28;44.95;;;153.70;1766.40;;;;;;5082907;28;20028;-78
2021/04/09 00:35:00;;;;;;;80.05;35.75;;;128.90;1792.00;;;;;;5084086;28;20557;-76
2021/04/09 00:37:26;;;;;;;;;;;128.60;1817.60;;;;;;5081023;28;20021;-81
2021/04/09 00:39:52;;;;;;;78.53;35.50;;;128.40;1843.20;;;;;;5084747;28;20330;-81
2021/04/09 00:42:18;;;;;;;;;;;128.30;1843.20;;;;;;5084570;28;20434;-82
2021/04/09 00:44:44;;;;;;;73.80;35.58;;;128.40;1843.20;;;;;;5082072;28;19903;-82
2021/04/09 00:47:11;;;;;;;87.80;39.20;;;128.40;1817.60;;;;;;5084163;28;20029;-82
2021/04/09 00:49:37;;;;;;;101.75;47.47;;;128.60;1792.00;;;;;;5083624;28;20535;-82
2021/04/09 00:52:03;;;;;;;107.18;47.38;;;128.60;1792.00;;;;;;5082209;28;20060;-81
2021/04/09 00:54:29;;;;;;;97.53;45.33;;;128.60;1817.60;;;;;;5083152;28;20036;-82
2021/04/09 00:56:54;;;;;;;104.90;46.00;;;128.60;1792.00;;;;;;5084446;28;20085;-81
2021/04/09 00:59:21;;;;;;;98.22;43.90;;;128.60;1817.60;;;;;;5084223;28;20032;-80
2021/04/09 01:01:47;;;;;;;113.07;52.53;;;128.50;1817.60;;;;;;5082999;28;20016;-79
2021/04/09 01:04:12;;;;;;;99.65;47.53;;;128.40;1843.20;;;;;;5085021;28;20044;-82
2021/04/09 01:06:38;;;;;;;98.53;45.38;;;128.50;1817.60;;;;;;5079797;28;20016;-84
2021/04/09 01:09:04;;;;;;;;;;;128.50;1817.60;;;;;;5085760;28;20032;-85
2021/04/09 01:11:30;;;;;;;68.05;32.10;;;128.40;1843.20;;;;;;5085259;28;20037;-85
2021/04/09 01:13:55;;;;;;;;;;;128.10;1868.80;;;;;;5084925;28;20101;-85
2021/04/09 01:16:41;;;;;;;62.53;28.67;;;103.30;1868.80;;;;;;5083127;28;19908;-83
2021/04/09 01:19:28;;;;;;;73.05;32.22;;;103.20;1868.80;;;;;;5079683;28;20043;-84
2021/04/09 01:22:00;;;;;;;72.13;33.15;;;103.30;1868.80;;;;;;5080836;28;20483;-84
2021/04/09 01:24:34;;;;;;;82.95;34.53;;;128.10;1843.20;;;;;;5085206;28;20028;-85
2021/04/09 01:27:31;;;;;;;94.35;43.17;;;128.20;1817.60;;;;;;5083565;28;20476;-84
2021/04/09 01:30:16;;;;;;;79.43;33.05;;;128.20;1843.20;;;;;;5075171;28;20036;-85
2021/04/09 01:32:42;;;;;;;77.35;36.65;;;128.20;1843.20;;;;;;5082575;28;20025;-85
2021/04/09 01:35:14;;;;;;;97.03;44.72;;;128.00;1868.80;;;;;;5082139;28;20103;-84
2021/04/09 01:37:42;;;;;;;78.85;37.20;;;128.10;1868.80;;;;;;5084689;28;20016;-83
2021/04/09 01:40:23;;;;;;;74.90;34.15;;;128.10;1843.20;;;;;;5081400;28;20024;-83
2021/04/09 01:42:56;;;;;;;74.68;35.08;;;128.10;1843.20;;;;;;5082038;28;20022;-84
2021/04/09 01:45:23;;;;;;;64.40;30.90;;;128.00;1894.40;;;;;;5081008;28;20028;-84
2021/04/09 01:47:50;;;;;;;60.50;29.15;;;128.00;1868.80;;;;;;5083063;28;20038;-84
2021/04/09 01:50:18;;;;;;;57.97;27.65;;;128.10;1868.80;;;;;;5082428;28;20053;-82
2021/04/09 01:52:47;;;;;;;80.75;32.55;;;128.00;1894.40;;;;;;5082149;28;20077;-85
2021/04/09 01:55:15;;;;;;;74.72;33.92;;;103.30;1868.80;;;;;;5079474;28;20059;-84
2021/04/09 01:57:43;;;;;;;105.18;43.83;;;103.30;1868.80;;;;;;5081206;28;20111;-84
2021/04/09 02:00:20;;;;;;;66.55;31.17;;;103.30;1843.20;;;;;;5083035;28;20051;-84
2021/04/09 02:02:48;;;;;;;61.05;26.95;;;103.10;1894.40;;;;;;5084149;28;20081;-85
2021/04/09 02:05:26;;;;;;;52.80;25.65;;;102.80;1920.00;;;;;;5080054;28;20039;-84
2021/04/09 02:07:55;;;;;;;52.53;25.55;;;102.50;1920.00;;;;;;5077801;28;20047;-84
2021/04/09 02:10:21;;;;;;;48.85;23.63;;;102.50;1920.00;;;;;;5083446;28;20039;-87
2021/04/09 02:12:48;;;;;;;47.22;22.38;;;102.50;1894.40;;;;;;5084357;28;20017;-83
2021/04/09 02:15:17;;;;;;;41.83;20.35;;;77.60;1945.60;;;;;;5084053;28;20028;-83
2021/04/09 02:17:43;;;;;;;41.28;19.13;;;77.50;1971.20;;;;;;5082607;28;20464;-85
2021/04/09 02:20:15;;;;;;;37.35;18.48;;;77.50;1971.20;;;;;;5082115;28;20021;-86
2021/04/09 02:22:42;;;;;;;37.28;20.70;;;77.70;1945.60;;;;;;5083534;28;20476;-86
2021/04/09 02:25:10;;;;;;;43.67;21.13;;;102.40;1920.00;;;;;;5080536;28;20048;-86
2021/04/09 02:27:37;;;;;;;42.90;21.08;;;102.40;1920.00;;;;;;5081156;28;20028;-87
2021/04/09 02:30:07;;;;;;;45.55;22.58;;;77.70;1945.60;;;;;;5082445;28;20471;-86
2021/04/09 02:32:33;;;;;;;40.47;18.98;;;77.50;1971.20;;;;;;5080520;28;20073;-86
2021/04/09 02:34:59;;;;;;;35.50;17.50;;;77.70;1945.60;;;;;;5082448;28;20035;-86
2021/04/09 02:37:25;;;;;;;;;;;77.40;1971.20;;;;;;5083100;28;20049;-86
2021/04/09 02:39:56;;;;;;;39.08;19.42;;;77.40;1971.20;;;;;;5081332;28;19915;-82
2021/04/09 02:42:22;;;;;;;33.92;19.23;;;77.50;1945.60;;;;;;5081300;28;20493;-86
2021/04/09 02:44:48;;;;;;;39.28;18.83;;;77.70;1920.00;;;;;;5083591;28;20032;-85
2021/04/09 02:47:22;;;;;;;;;;;77.50;1971.20;;;;;;5080402;28;20521;-86
2021/04/09 02:49:54;;;;;;;34.45;16.75;;;77.60;1945.60;;;;;;5082362;28;19973;-80
2021/04/09 02:52:28;;;;;;;30.83;16.10;;;77.60;1920.00;;;;;;5081017;28;20483;-86
2021/04/09 02:54:57;;;;;;;41.97;18.17;;;77.40;1945.60;;;;;;5081154;28;20476;-84
2021/04/09 02:57:25;;;;;;;40.00;16.45;;;77.30;1971.20;;;;;;5081733;28;20016;-85
2021/04/09 02:59:52;;;;;;;34.80;18.63;;;77.40;1971.20;;;;;;5080175;28;20049;-86
2021/04/09 03:02:19;;;;;;;35.53;17.67;;;77.40;1945.60;;;;;;5082453;28;20059;-82
2021/04/09 03:04:45;;;;;;;37.47;16.48;;;77.30;1971.20;;;;;;5079493;28;20055;-84
2021/04/09 03:07:11;;;;;;;34.85;17.15;;;77.30;1971.20;;;;;;5080313;28;20024;-86
2021/04/09 03:09:38;;;;;;;35.13;16.55;;;52.10;2048.00;;;;;;5081138;28;20472;-85
2021/04/09 03:12:19;;;;;;;32.53;15.27;;;51.90;2048.00;;;;;;5083029;28;20025;-85
2021/04/09 03:14:51;;;;;;;37.17;18.00;;;51.90;2048.00;;;;;;5080748;28;20044;-85
2021/04/09 03:17:29;;;;;;;36.58;17.55;;;51.90;2073.60;;;;;;5078396;28;20047;-81
2021/04/09 03:19:55;;;;;;;33.58;16.58;;;52.10;2073.60;;;;;;5074264;28;20047;-85
2021/04/09 03:22:21;;;;;;;30.55;15.93;;;77.00;2022.40;;;;;;5079418;28;20489;-85
2021/04/09 03:24:46;;;;;;;;;;;77.20;2022.40;;;;;;5082871;28;20024;-85
2021/04/09 03:27:14;;;;;;;36.10;16.30;;;77.30;1996.80;;;;;;5083794;28;20368;-85
2021/04/09 03:29:42;;;;;;;34.40;16.25;;;77.20;1996.80;;;;;;5080729;28;20418;-84
2021/04/09 03:32:08;;;;;;;32.40;17.48;;;77.20;2022.40;;;;;;5081965;28;20052;-85
2021/04/09 03:34:34;;;;;;;27.65;15.18;;;77.20;2022.40;;;;;;5078022;28;20040;-85
2021/04/09 03:37:00;;;;;;;30.60;16.80;;;77.20;2022.40;;;;;;5080160;28;20021;-83
2021/04/09 03:39:25;;;;;;;;;;;77.40;1971.20;;;;;;5080735;28;20028;-83
2021/04/09 03:41:51;;;;;;;32.08;16.02;;;77.50;1945.60;;;;;;5083292;28;19935;-83
2021/04/09 03:44:17;;;;;;;;;;;77.50;1945.60;;;;;;5079595;28;20024;-83
2021/04/09 03:46:42;;;;;;;33.28;17.92;;;77.60;1971.20;;;;;;5082203;28;19915;-84
2021/04/09 03:49:08;;;;;;;;;;;77.60;1945.60;;;;;;5079389;28;20480;-83
2021/04/09 03:51:35;;;;;;;37.70;18.50;;;77.70;1894.40;;;;;;5085505;28;19961;-84
2021/04/09 03:54:01;;;;;;;35.83;17.25;;;102.40;1894.40;;;;;;5085434;28;20044;-83
2021/04/09 03:56:27;;;;;;;39.10;18.77;;;102.50;1894.40;;;;;;5083804;28;20016;-80
2021/04/09 03:58:53;;;;;;;41.17;21.00;;;102.50;1945.60;;;;;;5086933;28;20024;-83
2021/04/09 04:01:18;;;;;;;;;;;102.40;1945.60;;;;;;5083109;28;20357;-82
2021/04/09 04:03:48;;;;;;;40.75;18.77;;;77.30;1996.80;;;;;;5082560;28;19924;-83
2021/04/09 04:06:14;;;;;;;42.17;18.65;;;77.30;1996.80;;;;;;5084379;28;20649;-82
2021/04/09 04:08:41;;;;;;;45.03;20.73;;;77.70;1996.80;;;;;;5084919;28;20016;-83
2021/04/09 04:11:07;;;;;;;42.72;19.90;;;77.50;1996.80;;;;;;5082709;28;20020;-83
2021/04/09 04:13:33;;;;;;;41.33;20.27;;;77.50;2022.40;;;;;;5085485;28;20433;-83
2021/04/09 04:15:58;;;;;;;;;;;77.20;2048.00;;;;;;5084175;28;20036;-83
2021/04/09 04:18:24;;;;;;;36.65;18.02;;;77.40;1996.80;;;;;;5087395;28;19998;-83
2021/04/09 04:20:50;;;;;;;;;;;77.40;2022.40;;;;;;5083404;28;20137;-81
2021/04/09 04:23:15;;;;;;;40.63;19.05;;;77.40;2022.40;;;;;;5081029;28;20267;-84
2021/04/09 04:25:41;;;;;;;;;;;77.30;2048.00;;;;;;5085452;28;20086;-82
2021/04/09 04:28:07;;;;;;;35.80;18.90;;;77.50;2022.40;;;;;;5080307;28;20372;-83
2021/04/09 04:30:32;;;;;;;;;;;77.50;2022.40;;;;;;5084291;28;20109;-81
2021/04/09 04:32:58;;;;;;;39.55;18.40;;;77.40;2048.00;;;;;;5085395;28;19912;-83
2021/04/09 04:35:23;;;;;;;;;;;77.20;2048.00;;;;;;5085812;28;20103;-84
2021/04/09 04:37:49;;;;;;;31.75;15.32;;;77.00;2048.00;;;;;;5082935;28;19910;-84
2021/04/09 04:40:15;;;;;;;;;;;76.90;2073.60;;;;;;5084516;28;20024;-85
2021/04/09 04:42:41;;;;;;;27.90;12.60;;;76.90;2073.60;;;;;;5084035;28;20390;-84
2021/04/09 04:45:07;;;;;;;27.63;13.88;;;76.90;2073.60;;;;;;5083443;28;20031;-85
2021/04/09 04:47:33;;;;;;;23.50;13.15;;;76.80;2073.60;;;;;;5084729;28;20027;-84
2021/04/09 04:49:59;;;;;;;29.40;14.45;;;76.80;2073.60;;;;;;5084520;28;20024;-84
2021/04/09 04:52:24;;;;;;;;;;;77.00;2073.60;;;;;;5083703;28;20020;-84
2021/04/09 04:54:50;;;;;;;34.83;14.32;;;77.20;2073.60;;;;;;5084646;28;19912;-84
2021/04/09 04:57:16;;;;;;;;;;;77.20;2073.60;;;;;;5086055;28;20105;-84
2021/04/09 04:59:41;;;;;;;25.65;12.50;;;77.40;2048.00;;;;;;5083765;28;20410;-83
2021/04/09 05:02:07;;;;;;;;;;;77.50;2048.00;;;;;;5084177;28;20089;-85
2021/04/09 05:04:32;;;;;;;28.40;13.10;;;77.50;2048.00;;;;;;5082604;28;19965;-79
2021/04/09 05:06:58;;;;;;;;;;;77.60;2048.00;;;;;;5081899;28;20027;-79
2021/04/09 05:09:24;;;;;;;31.15;14.00;;;77.60;2073.60;;;;;;5082920;28;19904;-82
2021/04/09 05:11:49;;;;;;;;;;;77.70;2073.60;;;;;;5084021;28;20020;-82
2021/04/09 05:14:15;;;;;;;28.20;14.30;;;102.40;2048.00;;;;;;5085036;28;19912;-84
2021/04/09 05:16:41;;;;;;;;;;;102.50;2048.00;;;;;;5082839;28;20094;-81
2021/04/09 05:19:07;;;;;;;34.08;16.20;;;102.50;2073.60;;;;;;5084312;28;19911;-82
2021/04/09 05:21:33;;;;;;;35.88;17.00;;;102.60;2073.60;;;;;;5077534;28;20044;-82
2021/04/09 05:23:59;;;;;;;31.73;17.20;;;102.80;2048.00;;;;;;5074485;28;20059;-81
2021/04/09 05:26:24;;;;;;;;;;;102.80;2022.40;;;;;;5074366;28;20028;-78
2021/04/09 05:28:50;;;;;;;35.17;17.98;;;103.00;2022.40;;;;;;5072595;28;19911;-84
2021/04/09 05:31:16;;;;;;;;;;;103.10;2022.40;;;;;;5072854;28;20029;-80
2021/04/09 05:33:42;;;;;;;41.10;19.65;;;103.20;1996.80;;;;;;5073577;28;19925;-81
2021/04/09 05:36:07;;;;;;;;;;;103.30;1971.20;;;;;;5073100;28;20024;-81
2021/04/09 05:38:33;;;;;;;37.45;18.88;;;128.10;1971.20;;;;;;5072741;28;20283;-82
2021/04/09 05:40:59;;;;;;;;;;;128.20;2022.40;;;;;;5074277;28;20379;-81
2021/04/09 05:43:24;;;;;;;28.83;14.70;;;128.30;2022.40;;;;;;5075595;28;20364;-82
2021/04/09 05:45:50;;;;;;;;;;;128.50;1945.60;;;;;;5087791;28;20176;-81
2021/04/09 05:48:17;;;;;;;28.75;14.98;;;128.60;1894.40;;;;;;5085699;28;19996;-76
2021/04/09 05:50:43;;;;;;;29.13;16.00;;;128.60;1920.00;;;;;;5084456;28;20562;-81
2021/04/09 05:53:09;;;;;;;;;;;128.70;1894.40;;;;;;5083646;28;20031;-80
2021/04/09 05:55:35;;;;;;;30.55;14.35;;;128.60;1920.00;;;;;;5090458;28;19912;-84
2021/04/09 05:58:01;;;;;;;25.83;11.65;;;128.70;1920.00;;;;;;5079274;28;20032;-81
2021/04/09 06:00:27;;;;;;;24.00;12.63;;;128.80;1843.20;;;;;;5083628;28;20039;-83
2021/04/09 06:02:55;;;;;;;;;;;128.80;1843.20;;;;;;5074948;28;20556;-80
2021/04/09 06:05:21;;;;;;;28.92;12.80;;;153.70;1843.20;;;;;;5072585;28;19912;-82
2021/04/09 06:07:48;;;;;;;28.85;14.02;;;153.90;1817.60;;;;;;5077325;28;20035;-84
2021/04/09 06:10:14;;;;;;;33.72;19.35;;;153.80;1843.20;;;;;;5089709;28;20107;-87
2021/04/09 06:12:40;;;;;;;25.17;14.75;;;153.80;1843.20;;;;;;5071604;28;20035;-84
2021/04/09 06:15:07;;;;;;;;;;;153.80;1817.60;;;;;;5084606;28;20036;-84
2021/04/09 06:17:32;;;;;;;28.08;14.60;;;153.80;1843.20;;;;;;5091911;28;20006;-84
2021/04/09 06:19:58;;;;;;;;;;;153.70;1843.20;;;;;;5091908;28;20132;-84
2021/04/09 06:22:24;;;;;;;22.27;11.43;;;153.90;1843.20;;;;;;5076466;28;20351;-84
2021/04/09 06:24:49;;;;;;;;;;;153.90;1843.20;;;;;;5073049;28;20024;-82
2021/04/09 06:27:15;;;;;;;30.45;13.88;;;154.00;1868.80;;;;;;5072354;28;19951;-81
2021/04/09 06:29:41;;;;;;;;;;;154.30;1894.40;;;;;;5073119;28;20032;-86
2021/04/09 06:32:07;;;;;;;22.42;12.13;;;154.40;1843.20;;;;;;5071365;28;19908;-78
2021/04/09 06:34:33;;;;;;;22.95;11.25;;;154.50;1868.80;;;;;;5071169;28;20044;-84
2021/04/09 06:36:58;;;;;;;;;;;154.20;1843.20;;;;;;5072289;28;20119;-83
2021/04/09 06:39:24;;;;;;;20.45;11.57;;;154.20;1843.20;;;;;;5073038;28;19911;-86
2021/04/09 06:41:50;;;;;;;;;;;154.30;1868.80;;;;;;5073659;28;20035;-84
2021/04/09 06:44:17;;;;;;;20.17;10.82;;;154.30;1868.80;;;;;;5072093;28;19905;-82
2021/04/09 06:46:43;;;;;;;29.95;11.27;;;154.40;1817.60;;;;;;5071507;28;20027;-81
2021/04/09 06:49:11;;;;;;;19.15;10.52;;;154.50;1817.60;;;;;;5071306;28;20125;-81
2021/04/09 06:51:37;;;;;;;21.17;11.88;;;179.30;1766.40;;;;;;5071613;28;20021;-82
2021/04/09 06:54:04;;;;;;;17.05;8.40;;;179.40;1766.40;;;;;;5071624;28;20041;-82
2021/04/09 06:56:33;;;;;;;14.77;8.98;;;179.60;1740.80;;;;;;5071268;28;20025;-82
2021/04/09 06:58:58;;;;;;;17.50;9.45;;;179.60;1715.20;;;;;;5072792;28;20027;-82
2021/04/09 07:01:24;;;;;;;;;;;179.80;1715.20;;;;;;5071856;28;20021;-82
2021/04/09 07:03:53;;;;;;;12.55;6.50;;;179.90;1689.60;;;;;;5071295;28;19963;-82
2021/04/09 07:06:19;;;;;;;16.45;9.02;;;179.80;1689.60;;;;;;5072701;28;20358;-82
2021/04/09 07:08:45;;;;;;;;;;;179.90;1715.20;;;;;;5073110;28;20031;-82
2021/04/09 07:11:10;;;;;;;19.25;9.15;;;179.90;1689.60;;;;;;5071328;28;20413;-80
2021/04/09 07:13:46;;;;;;;;;;;180.00;1715.20;;;;;;5071223;28;20036;-80
2021/04/09 07:16:12;;;;;;;22.80;10.15;;;204.90;1689.60;;;;;;5071153;28;19912;-83
2021/04/09 07:18:48;;;;;;;;;;;180.10;1715.20;;;;;;5071561;28;20040;-82
2021/04/09 07:21:25;;;;;;;23.13;9.43;;;205.00;1664.00;;;;;;5071022;28;19904;-77
2021/04/09 07:24:10;;;;;;;14.88;10.07;;;205.00;1664.00;;;;;;5071262;28;20077;-83
2021/04/09 07:26:43;;;;;;;16.10;7.63;;;205.00;1689.60;;;;;;5074485;28;20017;-82
2021/04/09 07:29:39;;;;;;;19.33;8.15;;;205.10;1638.40;;;;;;5075158;28;20063;-83
2021/04/09 07:32:14;;;;;;;14.00;8.48;;;205.30;1612.80;;;;;;5034705;28;20036;-83
2021/04/09 07:35:03;;;;;;;18.85;9.65;;;205.20;1664.00;;;;;;5033990;28;20100;-82
2021/04/09 07:37:33;;;;;;;19.92;10.95;;;205.40;1664.00;;;;;;5033956;28;20073;-82
2021/04/09 07:40:03;;;;;;;15.38;7.90;;;205.60;1638.40;;;;;;5017482;28;20057;-81
2021/04/09 07:42:34;;;;;;;17.85;10.32;;;205.70;1561.60;;;;;;5016934;28;20044;-82
2021/04/09 07:45:05;;;;;;;22.00;12.05;;;230.50;1510.40;;;;;;5033911;28;20029;-79
2021/04/09 07:47:31;;;;;;;25.00;11.27;;;230.60;1536.00;;;;;;5017411;28;20191;-82
2021/04/09 07:50:04;;;;;;;;;;;230.80;1561.60;;;;;;5017840;28;20611;-85
2021/04/09 07:52:41;;;;;;;19.77;7.68;;;230.70;1561.60;;;;;;5034106;28;19909;-80
2021/04/09 07:55:10;;;;;;;;;;;230.70;1510.40;;;;;;5034244;28;20061;-81
2021/04/09 07:57:36;;;;;;;8.68;5.07;;;230.90;1433.60;;;;;;5033748;28;19912;-81
2021/04/09 08:00:01;;;;;;;;;;;230.80;1484.80;;;;;;5017766;28;20034;-81
2021/04/09 08:02:39;;;;;;;11.25;5.07;;;231.00;1382.40;;;;;;5033142;28;19915;-79
2021/04/09 08:05:05;;;;;;;10.80;5.75;;;230.80;1382.40;;;;;;5033101;28;20145;-86
2021/04/09 08:07:33;;;;;;;13.40;5.47;;;230.90;1356.80;;;;;;5035543;28;20029;-81
2021/04/09 08:09:58;;;;;;;10.20;6.05;;;230.80;1382.40;;;;;;5084447;28;20114;-84
2021/04/09 08:12:31;;;;;;;;;;;230.90;1433.60;;;;;;5082282;28;20094;-81
2021/04/09 08:15:20;;;;;;;15.45;7.05;;;231.10;1459.20;;;;;;5076675;28;19918;-82
2021/04/09 08:18:07;;;;;;;26.52;11.75;;;231.20;1382.40;;;;;;5058998;28;20452;-81
2021/04/09 08:20:37;;;;;;;;;;;231.20;1408.00;;;;;;5076175;28;20024;-82
2021/04/09 09:40:45;;;;;;;7.38;5.15;;;281.90;1126.40;;;;;;5119083;27;20388;-79
2021/04/09 09:43:30;;;;;;;8.25;4.45;;;307.90;1075.20;;;;;;5110679;28;20499;-80
2021/04/09 09:45:56;;;;;;;6.43;4.28;;;307.90;972.80;;;;;;5109695;28;20024;-79
2021/04/09 09:48:22;;;;;;;9.05;4.05;;;308.10;921.60;;;;;;5109465;28;20076;-81
2021/04/09 09:50:47;;;;;;;;;;;332.90;921.60;;;;;;5109287;28;20043;-80
2021/04/09 09:55:49;;;;;;;8.43;3.97;;;333.20;896.00;;;;;;5098139;23;20056;-76
2021/04/09 09:58:28;;;;;;;8.50;5.05;;;333.20;972.80;;;;;;5031483;28;20034;-77
2021/04/09 10:03:40;;;;;;;7.75;4.45;;;358.50;844.80;;;;;;5141201;22;20052;-81
2021/04/09 10:06:12;;;;;;;6.07;3.38;;;333.60;947.20;;;;;;5073587;28;20097;-79
2021/04/09 10:08:39;;;;;;;7.55;4.22;;;358.40;947.20;;;;;;5109069;28;20031;-80
2021/04/09 10:11:08;;;;;;;6.50;3.85;;;358.40;896.00;;;;;;5081196;28;20032;-78
2021/04/09 10:13:38;;;;;;;7.43;3.97;;;358.50;793.60;;;;;;5088720;28;20058;-79
2021/04/09 10:16:19;;;;;;;5.75;4.05;;;358.80;819.20;;;;;;5088449;28;20051;-80
2021/04/09 10:18:57;;;;;;;9.63;4.68;;;359.00;819.20;;;;;;5071715;28;20115;-79
2021/04/09 10:21:31;;;;;;;6.82;4.38;;;358.60;844.80;;;;;;5090517;28;20024;-79
2021/04/09 10:24:12;;;;;;;10.05;5.40;;;358.80;896.00;;;;;;5090308;28;20028;-79
2021/04/09 10:26:42;;;;;;;7.85;4.43;;;358.90;819.20;;;;;;5109045;28;20468;-77
2021/04/09 10:29:43;;;;;;;11.85;5.13;;;358.80;819.20;;;;;;5107059;28;20099;-76
2021/04/09 10:32:21;;;;;;;8.73;4.97;;;359.20;793.60;;;;;;5027895;28;20041;-77
2021/04/09 10:34:51;;;;;;;6.82;4.82;;;359.30;819.20;;;;;;5062324;28;20041;-75
2021/04/09 10:37:26;;;;;;;8.02;4.85;;;384.00;716.80;;;;;;5051994;28;20030;-75
2021/04/09 10:39:52;;;;;;;8.48;5.03;;;384.10;819.20;;;;;;5041546;28;20109;-76
2021/04/09 10:42:20;;;;;;;10.25;4.90;;;384.30;844.80;;;;;;5015719;28;20037;-75
2021/04/09 10:44:45;;;;;;;7.57;4.15;;;384.70;716.80;;;;;;5031894;28;20045;-74
2021/04/09 10:47:12;;;;;;;7.80;4.75;;;384.40;742.40;;;;;;5031579;28;20521;-76
2021/04/09 10:49:40;;;;;;;7.57;4.10;;;384.00;793.60;;;;;;5031685;28;20033;-76
2021/04/09 10:52:09;;;;;;;21.02;6.65;;;384.00;742.40;;;;;;5031987;28;20022;-76
2021/04/09 10:54:39;;;;;;;8.48;4.70;;;384.00;793.60;;;;;;5015868;28;20072;-77
2021/04/09 10:57:10;;;;;;;8.05;4.35;;;384.50;768.00;;;;;;5048681;28;20197;-77
2021/04/09 10:59:56;;;;;;;7.93;4.45;;;409.60;691.20;;;;;;5042640;28;20037;-76
2021/04/09 11:02:24;;;;;;;7.35;3.60;;;384.30;768.00;;;;;;5031142;28;20046;-76
2021/04/09 11:04:55;;;;;;;12.57;3.75;;;384.70;691.20;;;;;;5030463;28;20108;-76
2021/04/09 11:07:38;;;;;;;8.05;4.70;;;409.90;640.00;;;;;;5091841;28;20021;-75
2021/04/09 11:10:04;;;;;;;7.65;4.68;;;410.40;640.00;;;;;;5092185;28;20067;-74
2021/04/09 11:12:30;;;;;;;7.82;5.22;;;435.20;716.80;;;;;;5094226;28;20218;-77
2021/04/09 11:15:09;;;;;;;9.90;4.65;;;410.20;691.20;;;;;;5094240;28;20469;-78
2021/04/09 11:17:36;;;;;;;6.88;5.25;;;410.20;691.20;;;;;;5093923;28;20035;-76
2021/04/09 11:20:23;;;;;;;8.15;4.55;;;410.40;742.40;;;;;;5075789;28;20036;-75
2021/04/09 11:23:03;;;;;;;8.57;4.75;;;435.50;691.20;;;;;;5093825;28;20028;-76
2021/04/09 11:25:34;;;;;;;6.43;4.55;;;410.00;691.20;;;;;;5073272;28;20039;-76
2021/04/09 11:28:01;;;;;;;6.47;4.03;;;410.00;742.40;;;;;;5075378;28;20162;-75
2021/04/09 11:30:31;;;;;;;11.60;5.00;;;384.80;691.20;;;;;;5074860;28;20060;-76
2021/04/09 11:32:57;;;;;;;11.93;5.05;;;410.00;716.80;;;;;;5088789;28;20029;-76
2021/04/09 11:35:24;;;;;;;8.68;5.07;;;409.60;742.40;;;;;;5085783;28;20043;-76
2021/04/09 11:37:55;;;;;;;11.18;5.53;;;384.90;691.20;;;;;;5074961;28;20032;-75
2021/04/09 11:40:42;;;;;;;8.45;4.70;;;409.70;716.80;;;;;;5093347;28;20639;-75
2021/04/09 11:43:09;;;;;;;11.00;5.15;;;409.80;793.60;;;;;;5091785;28;20066;-77
2021/04/09 11:45:47;;;;;;;9.15;5.13;;;409.60;716.80;;;;;;5092005;28;20031;-76
2021/04/09 11:48:30;;;;;;;8.48;4.85;;;409.60;716.80;;;;;;5074400;28;20056;-76
2021/04/09 11:51:19;;;;;;;6.95;5.38;;;410.20;768.00;;;;;;5089362;28;20505;-76
2021/04/09 11:54:02;;;;;;;6.32;4.45;;;435.20;691.20;;;;;;5091066;28;20008;-75
2021/04/09 11:56:48;;;;;;;11.23;6.07;;;435.60;665.60;;;;;;5092190;28;20024;-74
2021/04/09 11:59:16;;;;;;;9.05;6.13;;;435.50;691.20;;;;;;5075165;28;20420;-76
2021/04/09 12:01:44;;;;;;;9.07;5.82;;;410.50;742.40;;;;;;5074253;28;20484;-75
2021/04/09 12:04:32;;;;;;;8.50;5.38;;;410.40;665.60;;;;;;5092765;28;20146;-77
2021/04/09 12:06:58;;;;;;;10.98;6.28;;;410.30;691.20;;;;;;5070285;28;20492;-78
2021/04/09 12:09:24;;;;;;;10.73;5.97;;;435.40;640.00;;;;;;5072727;28;20033;-77
2021/04/09 12:11:50;;;;;;;10.32;6.07;;;435.70;640.00;;;;;;5072978;28;20473;-76
2021/04/09 12:14:36;;;;;;;11.55;6.05;;;410.40;716.80;;;;;;5072692;28;20078;-76
2021/04/09 12:17:06;;;;;;;7.57;4.90;;;410.50;742.40;;;;;;5054959;28;20016;-78
2021/04/09 12:19:33;;;;;;;9.38;6.22;;;435.40;665.60;;;;;;5087965;28;20036;-78
2021/04/09 12:21:59;;;;;;;9.75;5.90;;;435.60;640.00;;;;;;5054576;28;20024;-78
2021/04/09 12:24:24;;;;;;;8.13;5.60;;;410.30;691.20;;;;;;5072641;28;20028;-79
2021/04/09 12:26:50;;;;;;;8.32;5.80;;;410.40;716.80;;;;;;5087463;28;20035;-76
2021/04/09 12:29:16;;;;;;;10.15;5.80;;;435.40;691.20;;;;;;5092821;28;20020;-75
2021/04/09 12:31:42;;;;;;;10.13;5.72;;;435.40;665.60;;;;;;5092428;28;20047;-78
2021/04/09 12:34:08;;;;;;;10.07;5.93;;;435.50;665.60;;;;;;5092757;28;20068;-75
2021/04/09 12:36:37;;;;;;;7.93;5.55;;;435.70;691.20;;;;;;5092141;28;20385;-75
2021/04/09 12:39:07;;;;;;;8.38;6.00;;;460.80;691.20;;;;;;5073858;28;20048;-75
2021/04/09 12:41:33;;;;;;;12.55;6.03;;;435.50;665.60;;;;;;5092539;28;20012;-77
2021/04/09 12:44:00;;;;;;;7.80;5.10;;;435.60;640.00;;;;;;5073963;28;20030;-77
2021/04/09 12:46:26;;;;;;;7.32;5.28;;;435.80;665.60;;;;;;5074363;28;20031;-77
2021/04/09 12:48:53;;;;;;;9.45;5.13;;;436.00;640.00;;;;;;5073514;28;20042;-79
2021/04/09 12:51:20;;;;;;;10.40;5.22;;;460.80;665.60;;;;;;5074288;28;20036;-79
2021/04/09 12:53:45;;;;;;;14.52;5.63;;;460.80;640.00;;;;;;5074121;28;20515;-78
2021/04/09 12:56:14;;;;;;;7.10;5.40;;;461.00;640.00;;;;;;5092407;28;20024;-78
2021/04/09 12:58:40;;;;;;;6.65;4.85;;;461.10;640.00;;;;;;5073927;28;20036;-76
2021/04/09 13:01:06;;;;;;;7.32;4.90;;;461.10;640.00;;;;;;5092130;28;20062;-77
2021/04/09 13:03:31;;;;;;;7.63;5.22;;;460.90;691.20;;;;;;5091558;28;20051;-76
2021/04/09 13:05:57;;;;;;;7.07;4.40;;;435.90;691.20;;;;;;5073679;28;20024;-76
2021/04/09 13:08:23;;;;;;;7.07;4.68;;;435.50;691.20;;;;;;5076142;28;20381;-78
2021/04/09 13:10:48;;;;;;;8.07;5.15;;;435.20;665.60;;;;;;5052920;28;20039;-79
2021/04/09 13:13:14;;;;;;;11.52;5.60;;;435.20;691.20;;;;;;5054145;28;20025;-78
2021/04/09 13:15:40;;;;;;;16.92;10.40;;;435.20;665.60;;;;;;5071650;28;20496;-77
2021/04/09 13:18:06;;;;;;;9.55;5.75;;;410.20;691.20;;;;;;5071820;28;20017;-77
2021/04/09 13:20:31;;;;;;;10.52;4.65;;;435.30;665.60;;;;;;5071647;28;20111;-78
2021/04/09 13:22:57;;;;;;;10.55;5.10;;;435.30;665.60;;;;;;5054882;28;20027;-76
2021/04/09 13:25:23;;;;;;;10.93;6.95;;;435.50;665.60;;;;;;5091289;28;20020;-78
2021/04/09 13:27:49;;;;;;;31.73;15.88;;;435.30;716.80;;;;;;5091624;28;20016;-76
2021/04/09 13:30:15;;;;;;;11.05;6.22;;;435.20;691.20;;;;;;5073154;28;20542;-76
2021/04/09 13:32:40;;;;;;;9.85;4.82;;;435.20;665.60;;;;;;5090673;28;20028;-77
2021/04/09 13:35:07;;;;;;;7.45;4.53;;;410.50;691.20;;;;;;5091339;28;20384;-76
2021/04/09 13:37:33;;;;;;;5.50;3.92;;;410.30;640.00;;;;;;5091186;28;20024;-78
2021/04/09 13:39:59;;;;;;;7.15;5.05;;;435.20;665.60;;;;;;5091396;28;20032;-78
2021/04/09 13:42:24;;;;;;;13.18;7.00;;;435.80;614.40;;;;;;5072966;28;20420;-77
2021/04/09 13:44:50;;;;;;;14.45;6.57;;;435.40;665.60;;;;;;5072990;28;20111;-77
2021/04/09 13:47:16;;;;;;;8.85;5.00;;;410.40;640.00;;;;;;5070067;28;20119;-77
2021/04/09 13:49:41;;;;;;;8.43;5.28;;;410.20;716.80;;;;;;5072812;28;20048;-76
2021/04/09 13:52:07;;;;;;;8.85;5.05;;;410.20;665.60;;;;;;5090856;28;20034;-77
2021/04/09 13:54:33;;;;;;;11.35;5.13;;;435.20;665.60;;;;;;5091172;28;20024;-79
2021/04/09 13:56:58;;;;;;;11.52;6.53;;;410.30;640.00;;;;;;5072682;28;20115;-77